Time;durP1;ratioP1;P1;durP2;ratioP2;P2;SDS_P1;SDS_P2;PMS_P1;PMS_P2;Temp;Humidity;BMP_temperature;BMP_pressure;BME280_temperature;BME280_humidity;BME280_pressure;Samples;Min_cycle;Max_cycle;Signal;HPM_P1;HPM_P2
2023/12/24 00:01:47;;;;;;;0.20;0.20;;;7.70;99.90;;;;;;5130270;27;20027;-76
2023/12/24 00:04:17;;;;;;;0.10;0.10;;;7.70;99.90;;;;;;5137267;27;20027;-75
2023/12/24 00:06:43;;;;;;;0.10;0.10;;;7.80;99.90;;;;;;5113330;27;20022;-76
2023/12/24 00:09:09;;;;;;;0.10;0.10;;;7.80;99.90;;;;;;5131033;27;20011;-76
2023/12/24 00:11:38;;;;;;;0.10;0.10;;;7.80;99.90;;;;;;5132391;27;20011;-75
2023/12/24 00:14:04;;;;;;;0.20;0.20;;;7.80;99.90;;;;;;5117189;27;20035;-76
2023/12/24 00:16:32;;;;;;;0.10;0.10;;;7.80;99.90;;;;;;5134981;27;20031;-76
2023/12/24 00:18:59;;;;;;;0.20;0.20;;;7.80;99.90;;;;;;5144452;27;20058;-76
2023/12/24 00:21:26;;;;;;;0.10;0.10;;;7.70;99.90;;;;;;5116031;27;20042;-75
2023/12/24 00:23:52;;;;;;;0.10;0.10;;;7.70;99.90;;;;;;5134130;27;20036;-76
2023/12/24 00:26:18;;;;;;;0.10;0.10;;;7.80;99.90;;;;;;5129222;27;20678;-76
2023/12/24 00:28:45;;;;;;;0.10;0.10;;;7.70;99.90;;;;;;5130011;27;20030;-76
2023/12/24 00:31:10;;;;;;;0.10;0.10;;;7.70;99.90;;;;;;5141296;27;20018;-76
2023/12/24 00:33:36;;;;;;;0.10;0.10;;;7.80;99.90;;;;;;5124452;27;20066;-74
2023/12/24 00:36:02;;;;;;;0.10;0.10;;;7.80;99.90;;;;;;5147307;27;20028;-76
2023/12/24 00:38:30;;;;;;;0.10;0.10;;;7.80;99.90;;;;;;5144022;27;20011;-76
2023/12/24 00:40:56;;;;;;;0.10;0.10;;;7.80;99.90;;;;;;5139024;27;20019;-79
2023/12/24 00:43:22;;;;;;;0.70;0.70;;;7.80;99.90;;;;;;5120478;27;20021;-76
2023/12/24 00:45:48;;;;;;;0.20;0.20;;;7.70;99.90;;;;;;5117199;27;20031;-77
2023/12/24 00:48:16;;;;;;;0.17;0.17;;;7.70;99.90;;;;;;5138356;27;20031;-76
2023/12/24 00:50:52;;;;;;;0.10;0.10;;;7.70;99.90;;;;;;5139259;27;20023;-77
2023/12/24 00:53:18;;;;;;;0.20;0.20;;;5.80;99.90;;;;;;5139793;27;20003;-74
2023/12/24 00:55:43;;;;;;;0.20;0.20;;;7.60;99.90;;;;;;5139763;27;20019;-76
2023/12/24 00:58:11;;;;;;;0.20;0.20;;;7.60;99.90;;;;;;5143707;27;20023;-76
2023/12/24 01:00:37;;;;;;;0.20;0.20;;;8.30;99.90;;;;;;5138062;27;20023;-77
2023/12/24 01:03:03;;;;;;;0.30;0.30;;;7.50;99.90;;;;;;5137631;27;20023;-74
2023/12/24 01:05:31;;;;;;;0.10;0.10;;;7.60;99.90;;;;;;5135980;27;20026;-76
2023/12/24 01:07:59;;;;;;;0.10;0.10;;;7.50;99.90;;;;;;5137167;27;20024;-76
2023/12/24 01:10:24;;;;;;;0.13;0.13;;;7.60;99.90;;;;;;5137608;27;20059;-74
2023/12/24 01:12:50;;;;;;;0.10;0.10;;;7.60;99.90;;;;;;5136186;27;20038;-74
2023/12/24 01:15:16;;;;;;;0.10;0.10;;;7.60;99.90;;;;;;5137512;27;20115;-76
2023/12/24 01:17:42;;;;;;;0.10;0.10;;;7.50;99.90;;;;;;5136887;27;20038;-76
2023/12/24 01:20:15;;;;;;;0.10;0.10;;;7.50;99.90;;;;;;5131918;27;20043;-74
2023/12/24 01:22:41;;;;;;;0.10;0.10;;;7.50;99.90;;;;;;5135556;28;20098;-76
2023/12/24 01:25:08;;;;;;;0.10;0.10;;;7.40;99.90;;;;;;5137966;28;20019;-76
2023/12/24 01:27:35;;;;;;;0.73;0.73;;;7.50;99.90;;;;;;5117495;28;20535;-79
2023/12/24 01:30:01;;;;;;;0.08;0.08;;;7.50;99.90;;;;;;5122042;27;20568;-76
2023/12/24 01:32:27;;;;;;;0.10;0.10;;;7.50;99.90;;;;;;5132706;27;20034;-76
2023/12/24 01:34:54;;;;;;;0.00;0.00;;;7.50;99.90;;;;;;5147264;27;20023;-75
2023/12/24 01:37:21;;;;;;;0.10;0.10;;;7.50;99.90;;;;;;5162780;27;20019;-76
2023/12/24 01:39:47;;;;;;;0.10;0.10;;;7.50;99.90;;;;;;5143086;27;20018;-76
2023/12/24 01:42:13;;;;;;;0.10;0.10;;;7.50;99.90;;;;;;5155211;27;20323;-76
2023/12/24 01:44:39;;;;;;;0.10;0.10;;;7.40;99.90;;;;;;5156400;27;20030;-76
2023/12/24 01:47:07;;;;;;;0.10;0.10;;;7.40;99.90;;;;;;5136058;27;20111;-76
2023/12/24 01:49:33;;;;;;;0.10;0.10;;;7.50;99.90;;;;;;5154424;27;20015;-76
2023/12/24 01:52:12;;;;;;;0.10;0.10;;;7.50;99.90;;;;;;5161225;27;20018;-76
2023/12/24 01:54:38;;;;;;;1.02;1.02;;;7.40;99.90;;;;;;5138728;27;20011;-75
2023/12/24 01:57:08;;;;;;;0.10;0.10;;;7.50;99.90;;;;;;5153099;27;20534;-76
2023/12/24 01:59:41;;;;;;;0.10;0.10;;;7.50;99.90;;;;;;5138357;27;20087;-76
2023/12/24 02:02:09;;;;;;;12.68;2.80;;;7.40;99.90;;;;;;5158640;27;20019;-76
2023/12/24 02:04:39;;;;;;;0.10;0.10;;;7.40;99.90;;;;;;5161566;27;20042;-77
2023/12/24 02:07:06;;;;;;;0.20;0.20;;;7.40;99.90;;;;;;5163265;27;20089;-76
2023/12/24 02:09:32;;;;;;;0.10;0.10;;;7.40;99.90;;;;;;5153336;27;20015;-76
2023/12/24 02:11:58;;;;;;;0.20;0.20;;;7.40;99.90;;;;;;5135760;27;20038;-76
2023/12/24 02:14:24;;;;;;;0.17;0.17;;;7.50;99.90;;;;;;5138899;27;20059;-76
2023/12/24 02:16:53;;;;;;;0.20;0.20;;;7.40;99.90;;;;;;5139953;27;20031;-78
2023/12/24 02:19:19;;;;;;;0.20;0.20;;;7.40;99.90;;;;;;5159373;27;20304;-75
2023/12/24 02:21:54;;;;;;;0.10;0.10;;;7.40;99.90;;;;;;5158908;27;20053;-77
2023/12/24 02:24:21;;;;;;;0.10;0.10;;;7.40;99.90;;;;;;5157459;27;20007;-75
2023/12/24 02:26:53;;;;;;;4.30;4.13;;;7.40;99.90;;;;;;5136448;27;20026;-76
2023/12/24 02:29:39;;;;;;;0.20;0.20;;;7.40;99.90;;;;;;5163187;27;20018;-76
2023/12/24 02:32:10;;;;;;;2.65;2.55;;;7.30;99.90;;;;;;5148510;27;20015;-76
2023/12/24 02:34:39;;;;;;;0.10;0.10;;;7.30;99.90;;;;;;5162527;27;20007;-76
2023/12/24 02:37:07;;;;;;;0.10;0.10;;;7.30;99.90;;;;;;5154827;27;20276;-76
2023/12/24 02:39:38;;;;;;;0.10;0.10;;;7.30;99.90;;;;;;5157156;27;20018;-75
2023/12/24 02:42:05;;;;;;;2.47;2.38;;;7.30;99.90;;;;;;5145782;27;20632;-75
2023/12/24 02:44:45;;;;;;;0.20;0.20;;;7.20;99.90;;;;;;5138593;27;20027;-75
2023/12/24 02:47:14;;;;;;;0.10;0.10;;;7.20;99.90;;;;;;5151046;27;20083;-75
2023/12/24 02:49:40;;;;;;;0.10;0.10;;;;;;;;;;5163461;27;20110;-75
2023/12/24 02:52:29;;;;;;;0.20;0.20;;;7.20;99.90;;;;;;5157728;27;20058;-76
2023/12/24 02:54:56;;;;;;;1.40;1.38;;;7.20;99.90;;;;;;5162249;27;20022;-76
2023/12/24 02:57:29;;;;;;;8.45;8.07;;;7.20;99.90;;;;;;5160310;27;20608;-76
2023/12/24 02:59:55;;;;;;;1.90;1.85;;;7.20;99.90;;;;;;5161240;27;20023;-75
2023/12/24 03:02:21;;;;;;;0.10;0.10;;;7.20;99.90;;;;;;5164884;27;20082;-76
2023/12/24 03:04:47;;;;;;;0.20;0.20;;;7.20;99.90;;;;;;5165569;27;20019;-76
2023/12/24 03:07:17;;;;;;;0.20;0.20;;;7.20;99.90;;;;;;5160383;27;20015;-76
2023/12/24 03:09:44;;;;;;;0.68;0.68;;;7.20;99.90;;;;;;5156840;27;20051;-76
2023/12/24 03:12:13;;;;;;;0.10;0.10;;;7.20;99.90;;;;;;5163337;27;20022;-76
2023/12/24 03:14:39;;;;;;;0.00;0.00;;;;;;;;;;5162822;27;20019;-75
2023/12/24 03:17:05;;;;;;;0.10;0.10;;;7.20;99.90;;;;;;5156707;27;20054;-75
2023/12/24 03:19:34;;;;;;;0.10;0.10;;;7.30;99.90;;;;;;5157931;27;20060;-76
2023/12/24 03:21:59;;;;;;;0.10;0.10;;;7.30;99.90;;;;;;5108227;22;20048;-76
2023/12/24 03:24:25;;;;;;;3.65;3.40;;;7.40;99.90;;;;;;5080311;28;20274;-76
2023/12/24 03:26:52;;;;;;;0.30;0.30;;;7.40;99.90;;;;;;5095180;28;20021;-76
2023/12/24 03:29:18;;;;;;;0.10;0.10;;;7.40;99.90;;;;;;5099527;28;20042;-75
2023/12/24 03:31:44;;;;;;;7.80;7.55;;;7.30;99.90;;;;;;5098822;28;20032;-76
2023/12/24 03:34:10;;;;;;;0.10;0.10;;;7.20;99.90;;;;;;5094945;28;20093;-76
2023/12/24 03:36:36;;;;;;;0.50;0.50;;;7.20;99.90;;;;;;5096083;28;20070;-75
2023/12/24 03:39:01;;;;;;;0.10;0.10;;;7.20;99.90;;;;;;5098727;28;20024;-75
2023/12/24 03:41:27;;;;;;;0.05;0.05;;;7.20;99.90;;;;;;5098067;28;20024;-76
2023/12/24 03:43:53;;;;;;;0.10;0.10;;;7.20;99.90;;;;;;5096287;28;20024;-76
2023/12/24 03:46:20;;;;;;;0.10;0.10;;;7.20;99.90;;;;;;5096415;28;20078;-75
2023/12/24 03:48:47;;;;;;;0.20;0.20;;;7.20;99.90;;;;;;5096774;28;20703;-75
2023/12/24 03:51:14;;;;;;;0.08;0.08;;;7.20;99.90;;;;;;5099432;28;20036;-75
2023/12/24 03:53:43;;;;;;;5.90;5.68;;;7.10;99.90;;;;;;5096767;28;20016;-75
2023/12/24 03:56:10;;;;;;;0.10;0.10;;;7.10;99.90;;;;;;5094064;28;20023;-75
2023/12/24 03:58:38;;;;;;;0.10;0.10;;;7.20;99.90;;;;;;5092341;28;20089;-75
2023/12/24 04:01:10;;;;;;;0.00;0.00;;;7.20;99.90;;;;;;5092324;28;20179;-75
2023/12/24 04:03:36;;;;;;;0.10;0.10;;;7.20;99.90;;;;;;5091778;28;20099;-76
2023/12/24 04:06:10;;;;;;;0.10;0.10;;;7.10;99.90;;;;;;5092485;28;20044;-76
2023/12/24 04:08:38;;;;;;;0.20;0.20;;;7.10;99.90;;;;;;5100213;28;20235;-76
2023/12/24 04:11:17;;;;;;;0.35;0.35;;;7.00;99.90;;;;;;5104300;28;20063;-75
2023/12/24 04:13:50;;;;;;;0.10;0.10;;;7.00;99.90;;;;;;5096881;28;20032;-77
2023/12/24 04:16:17;;;;;;;0.03;0.03;;;7.00;99.90;;;;;;5098248;28;20032;-75
2023/12/24 04:18:43;;;;;;;0.10;0.10;;;7.00;99.90;;;;;;5099022;28;20020;-76
2023/12/24 04:21:09;;;;;;;0.10;0.10;;;7.00;99.90;;;;;;5098022;28;20088;-75
2023/12/24 04:23:44;;;;;;;0.10;0.10;;;6.90;99.90;;;;;;5097295;28;20553;-75
2023/12/24 04:26:11;;;;;;;0.10;0.10;;;6.80;99.90;;;;;;5094026;28;20024;-76
2023/12/24 04:28:37;;;;;;;0.10;0.10;;;6.80;99.90;;;;;;5091859;28;20026;-76
2023/12/24 04:31:03;;;;;;;0.10;0.10;;;6.70;99.90;;;;;;5093682;28;20031;-75
2023/12/24 04:33:31;;;;;;;6.03;3.50;;;6.70;99.90;;;;;;5090761;28;20016;-76
2023/12/24 04:35:56;;;;;;;0.03;0.03;;;6.60;99.90;;;;;;5094014;28;20046;-75
2023/12/24 04:38:26;;;;;;;0.10;0.10;;;6.60;99.90;;;;;;5100842;28;20158;-78
2023/12/24 04:41:12;;;;;;;0.17;0.17;;;6.60;99.90;;;;;;5092030;28;20012;-77
2023/12/24 04:43:38;;;;;;;0.00;0.00;;;6.50;99.90;;;;;;5094723;28;20043;-75
2023/12/24 04:46:04;;;;;;;0.00;0.00;;;6.50;99.90;;;;;;5096218;28;20245;-76
2023/12/24 04:48:30;;;;;;;0.00;0.00;;;6.40;99.90;;;;;;5099407;28;20180;-76
2023/12/24 04:50:56;;;;;;;0.10;0.10;;;6.40;99.90;;;;;;5102097;28;20058;-76
2023/12/24 04:53:21;;;;;;;0.00;0.00;;;6.50;99.90;;;;;;5101083;28;20016;-77
2023/12/24 04:55:48;;;;;;;0.00;0.00;;;6.40;99.90;;;;;;5103295;28;20012;-76
2023/12/24 04:58:14;;;;;;;0.10;0.10;;;6.40;99.90;;;;;;5100347;28;20505;-76
2023/12/24 05:00:40;;;;;;;0.10;0.10;;;6.30;99.90;;;;;;5098514;28;20024;-75
2023/12/24 05:03:05;;;;;;;0.10;0.10;;;6.30;99.90;;;;;;5096556;28;20024;-76
2023/12/24 05:05:31;;;;;;;0.08;0.08;;;6.30;99.90;;;;;;5098616;28;20137;-76
2023/12/24 05:07:58;;;;;;;0.10;0.10;;;6.30;99.90;;;;;;5105218;28;20042;-76
2023/12/24 05:10:25;;;;;;;0.10;0.10;;;6.30;99.90;;;;;;5105141;28;20016;-75
2023/12/24 05:12:52;;;;;;;0.95;0.95;;;6.20;99.90;;;;;;5092758;28;20100;-75
2023/12/24 05:15:18;;;;;;;0.10;0.10;;;6.20;99.90;;;;;;5096813;28;20032;-77
2023/12/24 05:17:44;;;;;;;0.10;0.10;;;6.10;99.90;;;;;;5096311;28;20042;-74
2023/12/24 05:20:13;;;;;;;0.38;0.38;;;6.10;99.90;;;;;;5098902;28;20024;-77
2023/12/24 05:22:39;;;;;;;0.05;0.05;;;6.00;99.90;;;;;;5097239;28;20031;-76
2023/12/24 05:25:06;;;;;;;0.10;0.10;;;6.00;99.90;;;;;;5097880;28;20028;-77
2023/12/24 05:27:33;;;;;;;0.00;0.00;;;5.90;99.90;;;;;;5097501;28;20204;-78
2023/12/24 05:29:58;;;;;;;20.17;6.35;;;5.80;99.90;;;;;;5072908;28;20020;-75
2023/12/24 05:32:24;;;;;;;0.00;0.00;;;5.80;99.90;;;;;;5095561;28;20028;-75
2023/12/24 05:34:51;;;;;;;0.10;0.10;;;5.90;99.90;;;;;;5094414;28;20099;-75
2023/12/24 05:37:19;;;;;;;0.10;0.10;;;5.90;99.90;;;;;;5093744;28;20016;-75
2023/12/24 05:39:53;;;;;;;0.10;0.10;;;5.90;99.90;;;;;;5093918;28;20084;-75
2023/12/24 05:42:20;;;;;;;0.08;0.08;;;5.90;99.90;;;;;;5076083;28;20139;-75
2023/12/24 05:44:50;;;;;;;0.00;0.00;;;5.90;99.90;;;;;;5102358;28;20107;-75
2023/12/24 05:47:21;;;;;;;0.10;0.10;;;5.90;99.90;;;;;;5097511;28;20024;-75
2023/12/24 05:49:48;;;;;;;0.05;0.05;;;5.80;99.90;;;;;;5094004;28;20036;-75
2023/12/24 05:52:14;;;;;;;1.88;1.88;;;5.80;99.90;;;;;;5091943;28;20029;-75
2023/12/24 05:54:39;;;;;;;4.43;4.22;;;5.70;99.90;;;;;;5092335;28;20023;-78
2023/12/24 05:57:06;;;;;;;0.30;0.30;;;5.60;99.90;;;;;;5092817;28;20062;-76
2023/12/24 05:59:32;;;;;;;0.10;0.10;;;5.60;99.90;;;;;;5090368;28;20013;-75
2023/12/24 06:01:57;;;;;;;0.10;0.10;;;5.60;99.90;;;;;;5091904;28;20107;-75
2023/12/24 06:04:23;;;;;;;0.75;0.75;;;5.60;99.90;;;;;;5073071;28;20641;-75
2023/12/24 06:06:51;;;;;;;0.10;0.10;;;5.50;99.90;;;;;;5095096;28;20024;-75
2023/12/24 06:09:19;;;;;;;2.17;2.10;;;5.50;99.90;;;;;;5092915;28;20035;-76
2023/12/24 06:11:45;;;;;;;1.88;1.77;;;5.50;99.90;;;;;;5092295;28;20028;-74
2023/12/24 06:14:11;;;;;;;0.10;0.10;;;5.50;99.90;;;;;;5096682;28;20027;-75
2023/12/24 06:16:38;;;;;;;0.03;0.03;;;5.50;99.90;;;;;;5094821;28;20032;-74
2023/12/24 06:19:05;;;;;;;0.10;0.10;;;5.50;99.90;;;;;;5094916;28;20030;-74
2023/12/24 06:21:32;;;;;;;0.00;0.00;;;5.50;99.90;;;;;;5096801;28;20628;-75
2023/12/24 06:23:58;;;;;;;0.10;0.10;;;5.50;99.90;;;;;;5094214;28;20020;-74
2023/12/24 06:26:24;;;;;;;8.13;7.85;;;5.50;99.90;;;;;;5094645;28;20099;-77
2023/12/24 06:28:49;;;;;;;0.10;0.10;;;5.50;99.90;;;;;;5099439;28;20012;-75
2023/12/24 06:31:30;;;;;;;0.10;0.10;;;5.50;99.90;;;;;;5096533;28;20028;-75
2023/12/24 06:33:59;;;;;;;0.85;0.85;;;5.40;99.90;;;;;;5096043;28;20024;-75
2023/12/24 06:36:25;;;;;;;0.43;0.43;;;5.40;99.90;;;;;;5101079;28;20036;-75
2023/12/24 06:38:50;;;;;;;0.10;0.10;;;5.40;99.90;;;;;;5100041;28;20023;-75
2023/12/24 06:41:41;;;;;;;0.10;0.10;;;5.40;99.90;;;;;;5101888;28;20011;-75
2023/12/24 06:44:07;;;;;;;0.30;0.30;;;5.40;99.90;;;;;;5105597;28;20028;-75
2023/12/24 06:46:32;;;;;;;0.10;0.10;;;5.40;99.90;;;;;;5094641;28;20024;-80
2023/12/24 06:48:58;;;;;;;0.10;0.10;;;5.40;99.90;;;;;;5062700;28;20031;-78
2023/12/24 06:51:24;;;;;;;0.10;0.10;;;5.40;99.90;;;;;;5082785;28;20027;-78
2023/12/24 06:53:50;;;;;;;0.00;0.00;;;5.40;99.90;;;;;;5081088;28;20062;-80
2023/12/24 06:56:15;;;;;;;0.10;0.10;;;5.50;99.90;;;;;;5064001;28;20031;-79
2023/12/24 06:58:41;;;;;;;0.10;0.10;;;5.50;99.90;;;;;;5082839;28;20028;-78
2023/12/24 07:01:07;;;;;;;0.00;0.00;;;5.50;99.90;;;;;;5080560;28;20050;-77
2023/12/24 07:03:33;;;;;;;0.10;0.10;;;5.50;99.90;;;;;;5060240;28;20021;-79
2023/12/24 07:05:59;;;;;;;0.10;0.10;;;5.50;99.90;;;;;;5042357;28;20032;-77
2023/12/24 07:08:24;;;;;;;5.38;5.07;;;5.50;99.90;;;;;;5060332;28;20021;-79
2023/12/24 07:10:50;;;;;;;0.10;0.10;;;5.50;99.90;;;;;;5060311;28;20078;-78
2023/12/24 07:13:16;;;;;;;1.08;1.08;;;5.50;99.90;;;;;;5060877;28;20012;-78
2023/12/24 07:15:43;;;;;;;0.00;0.00;;;5.50;99.90;;;;;;5061081;28;20021;-78
2023/12/24 07:18:08;;;;;;;0.00;0.00;;;5.50;99.90;;;;;;5060689;28;20677;-76
2023/12/24 07:20:35;;;;;;;0.00;0.00;;;5.50;99.90;;;;;;5061968;28;20066;-78
2023/12/24 07:23:00;;;;;;;0.10;0.10;;;5.50;99.90;;;;;;5082690;28;20043;-79
2023/12/24 07:25:26;;;;;;;0.08;0.08;;;5.50;99.90;;;;;;5087112;28;20016;-79
2023/12/24 07:27:52;;;;;;;0.00;0.00;;;5.50;99.90;;;;;;5081479;28;20089;-77
2023/12/24 07:30:19;;;;;;;0.05;0.05;;;5.50;99.90;;;;;;5088450;28;20429;-75
2023/12/24 07:32:46;;;;;;;0.10;0.10;;;;;;;;;;5093581;28;20101;-74
2023/12/24 07:35:12;;;;;;;4.22;4.03;;;5.60;99.90;;;;;;5090869;28;20030;-77
2023/12/24 07:37:38;;;;;;;0.08;0.08;;;5.50;99.90;;;;;;5084955;28;20063;-80
2023/12/24 07:40:08;;;;;;;0.00;0.00;;;5.60;99.90;;;;;;5090485;28;20020;-77
2023/12/24 07:42:38;;;;;;;18.77;17.80;;;5.70;99.90;;;;;;5097874;28;20092;-75
2023/12/24 07:45:05;;;;;;;0.10;0.10;;;5.80;99.90;;;;;;5087370;28;20224;-74
2023/12/24 07:47:31;;;;;;;0.10;0.10;;;6.40;99.90;;;;;;5086038;28;20052;-75
2023/12/24 07:49:57;;;;;;;0.10;0.10;;;5.90;99.90;;;;;;5094085;28;20012;-75
2023/12/24 07:52:23;;;;;;;0.10;0.10;;;6.00;99.90;;;;;;5093110;28;20016;-75
2023/12/24 07:54:49;;;;;;;0.75;0.75;;;6.10;99.90;;;;;;5089190;28;20020;-75
2023/12/24 07:57:14;;;;;;;0.03;0.03;;;6.20;99.90;;;;;;5095574;28;20054;-76
2023/12/24 07:59:42;;;;;;;0.10;0.10;;;6.30;99.90;;;;;;5095416;28;20020;-75
2023/12/24 08:02:08;;;;;;;0.50;0.50;;;6.40;99.90;;;;;;5090331;28;20062;-74
2023/12/24 08:04:34;;;;;;;0.15;0.15;;;6.50;99.90;;;;;;5104233;28;20036;-75
2023/12/24 08:07:00;;;;;;;0.10;0.10;;;6.60;99.90;;;;;;5105147;28;20043;-75
2023/12/24 08:09:26;;;;;;;0.10;0.10;;;6.60;99.90;;;;;;5110121;28;20105;-74
2023/12/24 08:11:53;;;;;;;0.00;0.00;;;6.80;99.90;;;;;;5112753;28;20012;-77
2023/12/24 08:14:18;;;;;;;0.10;0.10;;;6.90;99.90;;;;;;5112774;28;20019;-74
2023/12/24 08:16:49;;;;;;;0.50;0.50;;;7.00;99.90;;;;;;5115240;27;20031;-76
2023/12/24 08:19:15;;;;;;;0.20;0.20;;;7.20;99.90;;;;;;5103106;28;20012;-75
2023/12/24 08:21:41;;;;;;;0.10;0.10;;;7.30;99.90;;;;;;5103368;28;20042;-75
2023/12/24 08:24:08;;;;;;;0.10;0.10;;;7.30;99.90;;;;;;5102505;28;20477;-74
2023/12/24 08:26:34;;;;;;;0.20;0.20;;;7.50;99.90;;;;;;5105571;27;20665;-74
2023/12/24 08:29:00;;;;;;;0.20;0.20;;;7.60;99.90;;;;;;5110274;28;20039;-75
2023/12/24 08:31:27;;;;;;;0.20;0.20;;;7.60;99.90;;;;;;5098475;28;20661;-75
2023/12/24 08:33:56;;;;;;;4.38;4.18;;;7.70;99.90;;;;;;5087959;28;20008;-75
2023/12/24 08:36:22;;;;;;;0.10;0.10;;;7.90;99.90;;;;;;5084109;28;20039;-75
2023/12/24 08:38:49;;;;;;;0.30;0.30;;;8.00;99.90;;;;;;5083461;28;20016;-75
2023/12/24 08:41:15;;;;;;;0.47;0.47;;;8.20;99.90;;;;;;5083081;28;20028;-75
2023/12/24 08:43:40;;;;;;;0.20;0.20;;;8.30;99.90;;;;;;5093269;28;20029;-76
2023/12/24 08:46:06;;;;;;;0.30;0.30;;;8.40;99.90;;;;;;5092971;28;20028;-76
2023/12/24 08:48:33;;;;;;;0.10;0.10;;;8.50;99.90;;;;;;5091221;28;20486;-75
2023/12/24 08:51:03;;;;;;;0.50;0.50;;;8.60;99.90;;;;;;5093480;28;20189;-75
2023/12/24 08:53:28;;;;;;;0.20;0.20;;;8.70;99.90;;;;;;5094471;28;20016;-78
2023/12/24 08:55:54;;;;;;;0.17;0.17;;;8.80;99.90;;;;;;5096260;28;20092;-75
2023/12/24 08:58:20;;;;;;;0.10;0.10;;;9.00;99.90;;;;;;5094474;28;20020;-75
2023/12/24 09:00:46;;;;;;;0.20;0.20;;;9.10;99.90;;;;;;5095260;28;20055;-75
2023/12/24 09:03:12;;;;;;;0.20;0.20;;;9.10;99.90;;;;;;5082835;28;20016;-74
2023/12/24 09:05:37;;;;;;;0.20;0.20;;;9.30;99.90;;;;;;5082570;28;20031;-75
2023/12/24 09:08:05;;;;;;;0.50;0.50;;;9.40;99.90;;;;;;5086227;28;20023;-74
2023/12/24 09:10:31;;;;;;;0.68;0.68;;;9.50;99.90;;;;;;5087538;28;20122;-77
2023/12/24 09:12:57;;;;;;;0.20;0.20;;;9.50;99.90;;;;;;5087963;28;20036;-74
2023/12/24 09:15:22;;;;;;;0.73;0.73;;;9.20;99.90;;;;;;5084694;28;20084;-74
2023/12/24 09:17:50;;;;;;;0.28;0.28;;;9.80;99.90;;;;;;5085102;28;20032;-74
2023/12/24 09:20:17;;;;;;;0.20;0.20;;;10.00;99.90;;;;;;5092023;28;20020;-74
2023/12/24 09:22:45;;;;;;;20.65;16.17;;;10.10;99.90;;;;;;5100606;28;20044;-75
2023/12/24 09:25:13;;;;;;;0.20;0.20;;;9.20;99.90;;;;;;5094144;28;20019;-76
2023/12/24 09:27:38;;;;;;;0.10;0.10;;;10.40;99.90;;;;;;5091029;28;20127;-74
2023/12/24 09:30:05;;;;;;;0.20;0.20;;;10.60;99.90;;;;;;5086356;28;20296;-74
2023/12/24 09:32:31;;;;;;;0.20;0.20;;;10.80;99.90;;;;;;5089633;28;20030;-75
2023/12/24 09:34:57;;;;;;;0.20;0.20;;;10.90;99.90;;;;;;5088702;28;20047;-75
2023/12/24 09:37:25;;;;;;;0.30;0.30;;;10.90;99.90;;;;;;5089725;28;20028;-75
2023/12/24 09:39:52;;;;;;;0.30;0.30;;;11.10;99.90;;;;;;5090773;28;20028;-75
2023/12/24 09:42:18;;;;;;;0.20;0.20;;;11.20;99.90;;;;;;5083743;28;20028;-75
2023/12/24 09:44:45;;;;;;;0.20;0.20;;;11.30;99.90;;;;;;5080138;28;20663;-75
2023/12/24 09:47:11;;;;;;;0.20;0.20;;;11.80;99.90;;;;;;5079127;28;20592;-76
2023/12/24 09:49:37;;;;;;;0.15;0.15;;;12.30;99.90;;;;;;5079619;28;20020;-75
2023/12/24 09:52:03;;;;;;;1.00;1.00;;;12.50;99.90;;;;;;5078413;28;20032;-74
2023/12/24 09:54:29;;;;;;;9.52;8.95;;;12.80;99.90;;;;;;5077710;28;20046;-80
2023/12/24 09:56:56;;;;;;;0.22;0.22;;;13.00;99.90;;;;;;5077730;28;20028;-75
2023/12/24 09:59:21;;;;;;;0.38;0.38;;;13.30;99.90;;;;;;5077679;28;20055;-74
2023/12/24 10:01:47;;;;;;;0.30;0.30;;;13.40;99.90;;;;;;5079862;28;20056;-77
2023/12/24 10:04:14;;;;;;;0.35;0.35;;;13.20;99.90;;;;;;5081406;28;20032;-74
2023/12/24 10:06:58;;;;;;;0.40;0.40;;;13.20;99.90;;;;;;5081441;28;20029;-75
2023/12/24 10:09:41;;;;;;;0.20;0.20;;;13.20;99.90;;;;;;5082185;28;20231;-78
2023/12/24 10:12:08;;;;;;;0.10;0.10;;;13.20;99.90;;;;;;5081470;28;20038;-75
2023/12/24 10:14:35;;;;;;;0.30;0.30;;;13.10;99.90;;;;;;5081253;28;20534;-75
2023/12/24 10:17:03;;;;;;;3.88;3.72;;;13.10;99.90;;;;;;5080014;28;20032;-75
2023/12/24 10:19:30;;;;;;;0.73;0.73;;;13.10;99.90;;;;;;5081750;28;20066;-78
2023/12/24 10:22:14;;;;;;;0.98;0.98;;;13.10;99.90;;;;;;5081236;28;20048;-74
2023/12/24 10:24:41;;;;;;;0.35;0.35;;;13.30;99.90;;;;;;5081244;28;20406;-81
2023/12/24 10:27:11;;;;;;;0.55;0.55;;;13.30;99.90;;;;;;5080998;28;20020;-74
2023/12/24 10:29:41;;;;;;;0.20;0.20;;;13.40;99.90;;;;;;5080591;28;20027;-76
2023/12/24 10:32:10;;;;;;;0.70;0.70;;;13.40;99.90;;;;;;5080791;28;20031;-76
2023/12/24 10:34:37;;;;;;;0.20;0.20;;;13.60;99.90;;;;;;5080796;28;20051;-74
2023/12/24 10:37:17;;;;;;;0.20;0.20;;;13.70;99.90;;;;;;5080639;28;20055;-74
2023/12/24 10:39:43;;;;;;;0.10;0.10;;;13.70;99.90;;;;;;5080354;28;20024;-75
2023/12/24 10:42:09;;;;;;;0.20;0.20;;;13.90;99.90;;;;;;5080454;28;20106;-74
2023/12/24 10:44:36;;;;;;;0.20;0.20;;;13.90;99.90;;;;;;5080799;28;20103;-77
2023/12/24 10:47:03;;;;;;;0.20;0.20;;;14.00;99.90;;;;;;5080712;28;20026;-74
2023/12/24 10:49:29;;;;;;;0.20;0.20;;;15.90;99.90;;;;;;5079263;28;20273;-75
2023/12/24 10:51:57;;;;;;;0.10;0.10;;;14.20;99.90;;;;;;5081544;28;20726;-75
2023/12/24 10:54:24;;;;;;;0.20;0.20;;;14.20;99.90;;;;;;5081476;28;20549;-74
2023/12/24 10:57:12;;;;;;;0.20;0.20;;;14.30;99.90;;;;;;5080782;28;20043;-74
2023/12/24 11:00:06;;;;;;;0.30;0.30;;;14.40;99.90;;;;;;5080915;28;20107;-75
2023/12/24 11:02:33;;;;;;;0.20;0.20;;;;;;;;;;5080538;28;20757;-74
2023/12/24 11:04:59;;;;;;;0.20;0.20;;;14.50;99.90;;;;;;5080403;28;20051;-74
2023/12/24 11:07:34;;;;;;;1.67;1.58;;;14.60;99.90;;;;;;5080399;28;20473;-79
2023/12/24 11:10:07;;;;;;;0.20;0.20;;;14.80;99.90;;;;;;5079896;28;20021;-74
2023/12/24 11:12:34;;;;;;;0.47;0.47;;;14.90;99.90;;;;;;5079406;28;20016;-74
2023/12/24 11:15:01;;;;;;;0.10;0.10;;;15.10;99.90;;;;;;5080116;28;20042;-74
2023/12/24 11:17:34;;;;;;;1.77;1.67;;;15.20;99.90;;;;;;5080609;28;20060;-78
2023/12/24 11:20:18;;;;;;;0.20;0.20;;;15.20;99.90;;;;;;5080248;28;20020;-82
2023/12/24 11:23:02;;;;;;;0.35;0.35;;;16.10;99.90;;;;;;5078749;28;20059;-76
2023/12/24 11:25:42;;;;;;;1.50;1.45;;;15.30;99.90;;;;;;5080004;28;20020;-75
2023/12/24 11:28:10;;;;;;;0.20;0.20;;;15.40;99.70;;;;;;5078894;28;20020;-74
2023/12/24 11:30:52;;;;;;;0.40;0.40;;;15.40;99.90;;;;;;5080735;28;20509;-75
2023/12/24 11:33:46;;;;;;;1.80;1.73;;;15.60;99.90;;;;;;5079892;28;20032;-77
2023/12/24 11:36:13;;;;;;;0.17;0.17;;;15.70;99.90;;;;;;5079931;28;20016;-84
2023/12/24 11:38:40;;;;;;;0.90;0.90;;;15.80;99.60;;;;;;5080479;28;20728;-75
2023/12/24 11:41:13;;;;;;;0.30;0.30;;;15.80;98.60;;;;;;5079830;28;20681;-74
2023/12/24 11:43:40;;;;;;;2.15;1.95;;;15.80;98.70;;;;;;5080031;28;20024;-89
2023/12/24 11:46:07;;;;;;;0.85;0.85;;;15.70;98.30;;;;;;5078717;28;20106;-79
2023/12/24 11:48:35;;;;;;;0.20;0.20;;;15.80;99.00;;;;;;5079358;28;20342;-86
2023/12/24 11:51:02;;;;;;;0.68;0.68;;;15.80;97.90;;;;;;5078604;28;20028;-81
2023/12/24 11:53:31;;;;;;;0.20;0.20;;;14.10;98.20;;;;;;5077665;28;20031;-77
2023/12/24 11:56:09;;;;;;;0.15;0.15;;;15.80;98.60;;;;;;5079995;28;20016;-83
2023/12/24 11:58:35;;;;;;;0.20;0.20;;;15.90;98.40;;;;;;5079161;28;20540;-74
2023/12/24 12:01:04;;;;;;;0.20;0.20;;;16.00;98.40;;;;;;5079819;28;20039;-75
2023/12/24 12:03:31;;;;;;;0.20;0.20;;;16.00;98.20;;;;;;5085499;28;20016;-75
2023/12/24 12:05:57;;;;;;;0.28;0.28;;;16.10;98.10;;;;;;5099455;28;20505;-77
2023/12/24 12:08:23;;;;;;;0.15;0.15;;;16.20;98.50;;;;;;5099173;28;21323;-73
2023/12/24 12:10:50;;;;;;;0.20;0.20;;;16.10;97.90;;;;;;5099087;28;20509;-78
2023/12/24 12:13:16;;;;;;;0.20;0.20;;;16.30;98.90;;;;;;5098851;28;20023;-74
2023/12/24 12:15:42;;;;;;;1.23;1.23;;;16.40;98.10;;;;;;5099022;28;20038;-75
2023/12/24 12:18:08;;;;;;;0.20;0.20;;;16.50;98.20;;;;;;5099394;28;20031;-77
2023/12/24 12:20:34;;;;;;;0.20;0.20;;;16.50;97.40;;;;;;5098173;28;20054;-72
2023/12/24 12:23:02;;;;;;;0.10;0.10;;;16.60;97.40;;;;;;5098720;28;20067;-72
2023/12/24 12:25:28;;;;;;;2.47;2.38;;;16.70;98.10;;;;;;5098537;28;20724;-73
2023/12/24 12:27:55;;;;;;;0.10;0.10;;;16.80;97.10;;;;;;5098437;27;20023;-74
2023/12/24 12:30:22;;;;;;;0.17;0.17;;;16.70;95.40;;;;;;5098636;28;20223;-74
2023/12/24 12:32:48;;;;;;;1.55;1.45;;;16.70;96.10;;;;;;5098450;28;20023;-77
2023/12/24 12:35:15;;;;;;;0.20;0.20;;;16.70;96.10;;;;;;5098062;28;20042;-75
2023/12/24 12:37:41;;;;;;;0.20;0.20;;;16.80;95.60;;;;;;5096748;28;20036;-73
2023/12/24 12:40:07;;;;;;;0.20;0.20;;;16.80;95.70;;;;;;5098846;28;20022;-75
2023/12/24 12:42:34;;;;;;;0.20;0.20;;;16.90;95.60;;;;;;5096677;28;20023;-75
2023/12/24 12:45:00;;;;;;;0.57;0.57;;;16.80;95.30;;;;;;5098679;28;20016;-72
2023/12/24 12:47:26;;;;;;;0.20;0.20;;;16.90;96.40;;;;;;5098869;28;20103;-77
2023/12/24 12:49:52;;;;;;;0.20;0.20;;;16.90;95.60;;;;;;5097210;28;20145;-85
2023/12/24 12:52:19;;;;;;;0.10;0.10;;;17.00;95.70;;;;;;5097872;28;20657;-74
2023/12/24 12:54:45;;;;;;;2.50;2.40;;;16.90;94.70;;;;;;5098201;28;20072;-75
2023/12/24 12:57:11;;;;;;;0.82;0.82;;;16.90;95.10;;;;;;5098125;28;20028;-76
2023/12/24 12:59:37;;;;;;;3.40;1.35;;;17.80;98.40;;;;;;5098336;28;20024;-75